Time;durP1;ratioP1;P1;durP2;ratioP2;P2;SDS_P1;SDS_P2;PMS_P1;PMS_P2;Temp;Humidity;BMP_temperature;BMP_pressure;BME280_temperature;BME280_humidity;BME280_pressure;Samples;Min_cycle;Max_cycle;Signal;HPM_P1;HPM_P2
2020/12/24 00:01:50;;;;;;;3.65;0.82;;;8.40;98.00;;;;;;5029099;28;20037;-69
2020/12/24 00:04:15;;;;;;;1.42;0.80;;;8.40;98.00;;;;;;5033360;28;20035;-69
2020/12/24 00:06:41;;;;;;;0.93;0.70;;;8.50;98.00;;;;;;5029043;28;20041;-70
2020/12/24 00:09:06;;;;;;;2.67;0.80;;;8.50;98.00;;;;;;5034395;28;20036;-70
2020/12/24 00:11:32;;;;;;;1.08;0.80;;;8.50;98.00;;;;;;5033529;28;20407;-68
2020/12/24 00:13:58;;;;;;;0.90;0.70;;;8.50;98.00;;;;;;5029498;28;20079;-69
2020/12/24 00:16:23;;;;;;;0.88;0.70;;;8.50;98.00;;;;;;5022287;28;20061;-70
2020/12/24 00:18:49;;;;;;;0.70;0.63;;;8.50;98.00;;;;;;5028250;28;20025;-69
2020/12/24 00:21:15;;;;;;;0.82;0.75;;;8.50;98.00;;;;;;5022705;28;20034;-70
2020/12/24 00:23:40;;;;;;;0.90;0.70;;;8.50;98.00;;;;;;5025386;28;20022;-69
2020/12/24 00:26:06;;;;;;;1.20;0.70;;;8.60;98.00;;;;;;5029664;28;20041;-69
2020/12/24 00:28:32;;;;;;;1.30;0.80;;;8.50;98.00;;;;;;5033275;28;20021;-68
2020/12/24 00:30:59;;;;;;;1.23;0.80;;;8.50;98.00;;;;;;5034981;28;20415;-68
2020/12/24 00:33:25;;;;;;;0.70;0.70;;;8.50;98.00;;;;;;5034197;28;20025;-68
2020/12/24 00:35:50;;;;;;;0.70;0.70;;;8.60;98.00;;;;;;5026800;28;20021;-69
2020/12/24 00:38:16;;;;;;;0.60;0.60;;;8.60;98.00;;;;;;5015242;28;20470;-69
2020/12/24 00:40:42;;;;;;;4.75;0.80;;;8.60;98.00;;;;;;5014663;28;20026;-68
2020/12/24 00:43:07;;;;;;;0.85;0.70;;;8.70;98.00;;;;;;5024614;28;20140;-69
2020/12/24 00:45:33;;;;;;;1.17;0.70;;;8.60;98.00;;;;;;5017159;28;20022;-69
2020/12/24 00:47:58;;;;;;;0.65;0.60;;;8.70;98.00;;;;;;5033011;28;20441;-68
2020/12/24 00:50:24;;;;;;;0.60;0.60;;;8.70;98.00;;;;;;5032769;28;20049;-69
2020/12/24 00:52:50;;;;;;;1.02;0.73;;;8.60;98.00;;;;;;5023299;28;20033;-69
2020/12/24 00:55:15;;;;;;;1.50;0.75;;;8.80;98.00;;;;;;5030434;28;20103;-68
2020/12/24 00:57:41;;;;;;;1.00;0.70;;;8.80;98.00;;;;;;5032666;28;20033;-68
2020/12/24 01:00:08;;;;;;;0.95;0.68;;;8.80;98.00;;;;;;5033514;28;20423;-68
2020/12/24 01:02:34;;;;;;;1.13;0.70;;;8.80;98.00;;;;;;5030678;28;20124;-67
2020/12/24 01:05:01;;;;;;;0.82;0.70;;;8.80;98.00;;;;;;5034114;28;20026;-69
2020/12/24 01:07:26;;;;;;;1.58;0.80;;;8.80;98.00;;;;;;5035417;28;20025;-68
2020/12/24 01:09:52;;;;;;;2.88;1.00;;;8.70;98.00;;;;;;5026624;28;20034;-68
2020/12/24 01:12:18;;;;;;;1.40;0.70;;;8.60;98.00;;;;;;5037058;28;20053;-69
2020/12/24 01:14:44;;;;;;;0.70;0.70;;;8.40;98.00;;;;;;5031821;28;20386;-69
2020/12/24 01:17:10;;;;;;;1.35;0.70;;;8.20;98.00;;;;;;5038141;28;20326;-69
2020/12/24 01:19:36;;;;;;;3.03;1.40;;;8.10;98.00;;;;;;5034221;28;20029;-69
2020/12/24 01:22:01;;;;;;;2.92;1.35;;;8.00;98.00;;;;;;5022654;28;20025;-70
2020/12/24 01:24:27;;;;;;;2.25;1.25;;;7.90;98.00;;;;;;5035015;28;20014;-70
2020/12/24 01:26:52;;;;;;;1.85;1.08;;;7.80;98.00;;;;;;5034202;28;20339;-69
2020/12/24 01:29:18;;;;;;;1.50;1.00;;;7.60;98.00;;;;;;5035732;28;20022;-69
2020/12/24 01:31:48;;;;;;;3.13;1.02;;;7.40;98.00;;;;;;5036777;28;20364;-70
2020/12/24 01:34:14;;;;;;;4.97;1.17;;;7.30;98.00;;;;;;5032848;28;20021;-70
2020/12/24 01:36:40;;;;;;;1.85;1.10;;;7.20;98.00;;;;;;5036563;28;20061;-71
2020/12/24 01:39:06;;;;;;;3.53;1.15;;;7.10;98.00;;;;;;5035897;28;20051;-71
2020/12/24 01:41:31;;;;;;;2.20;1.20;;;7.00;98.00;;;;;;5033739;28;20112;-70
2020/12/24 01:43:57;;;;;;;5.10;1.27;;;6.70;98.00;;;;;;5031385;28;20018;-70
2020/12/24 01:46:23;;;;;;;3.60;1.30;;;6.50;98.00;;;;;;5036756;28;20403;-70
2020/12/24 01:48:49;;;;;;;4.20;1.30;;;6.30;98.00;;;;;;5036766;28;20100;-71
2020/12/24 01:51:28;;;;;;;1.80;0.98;;;6.20;98.00;;;;;;5033656;28;20437;-71
2020/12/24 01:53:57;;;;;;;1.98;1.00;;;6.00;98.00;;;;;;5031386;28;20566;-71
2020/12/24 01:56:24;;;;;;;1.30;0.98;;;5.90;98.00;;;;;;5029528;28;20029;-71
2020/12/24 01:58:54;;;;;;;1.80;1.05;;;5.80;98.00;;;;;;5035866;28;20409;-71
2020/12/24 02:01:20;;;;;;;1.15;0.85;;;5.70;98.00;;;;;;5025859;28;20436;-71
2020/12/24 02:03:46;;;;;;;2.08;1.00;;;5.70;98.00;;;;;;5036375;28;20025;-70
2020/12/24 02:06:12;;;;;;;2.30;1.10;;;5.70;98.00;;;;;;5035176;28;20112;-71
2020/12/24 02:08:39;;;;;;;2.83;0.90;;;5.60;98.00;;;;;;5025221;28;20029;-71
2020/12/24 02:11:06;;;;;;;1.63;0.93;;;5.60;98.00;;;;;;5035007;28;20025;-70
2020/12/24 02:13:34;;;;;;;2.20;0.95;;;5.60;98.00;;;;;;5037117;28;20029;-71
2020/12/24 02:16:00;;;;;;;1.80;1.00;;;5.50;98.00;;;;;;5035221;28;20053;-70
2020/12/24 02:18:25;;;;;;;3.97;1.13;;;5.50;98.00;;;;;;5034138;28;20426;-71
2020/12/24 02:20:52;;;;;;;2.03;0.90;;;5.40;98.00;;;;;;5032860;28;20066;-71
2020/12/24 02:23:20;;;;;;;2.33;1.00;;;5.40;98.00;;;;;;5036474;28;20112;-70
2020/12/24 02:25:46;;;;;;;2.15;1.08;;;5.40;98.00;;;;;;5029927;28;20056;-71
2020/12/24 02:28:11;;;;;;;2.42;0.90;;;5.40;98.00;;;;;;5029495;28;20410;-71
2020/12/24 02:30:38;;;;;;;1.63;1.00;;;5.50;98.00;;;;;;5036015;28;20031;-71
2020/12/24 02:33:06;;;;;;;3.17;1.00;;;5.40;98.00;;;;;;5023387;28;20041;-71
2020/12/24 02:35:32;;;;;;;3.03;1.17;;;5.40;98.00;;;;;;5027797;28;20095;-70
2020/12/24 02:37:58;;;;;;;2.40;1.00;;;5.40;98.00;;;;;;5036548;28;20060;-70
2020/12/24 02:40:26;;;;;;;2.25;0.98;;;5.40;98.00;;;;;;5033413;28;20057;-69
2020/12/24 02:42:51;;;;;;;2.47;0.80;;;5.40;98.00;;;;;;5035028;28;20040;-71
2020/12/24 02:45:20;;;;;;;2.90;0.90;;;5.40;98.00;;;;;;5033764;28;20412;-70
2020/12/24 02:47:45;;;;;;;6.22;0.90;;;5.40;98.00;;;;;;5028324;28;20021;-70
2020/12/24 02:50:13;;;;;;;1.52;0.90;;;5.40;98.00;;;;;;5022038;28;20050;-70
2020/12/24 02:52:39;;;;;;;1.38;0.80;;;5.60;98.00;;;;;;5016667;28;20069;-70
2020/12/24 02:55:08;;;;;;;1.77;0.90;;;5.80;98.00;;;;;;5027881;28;20075;-70
2020/12/24 02:57:34;;;;;;;0.77;0.77;;;6.00;98.00;;;;;;5016837;28;20061;-70
2020/12/24 03:00:14;;;;;;;0.85;0.70;;;6.00;98.00;;;;;;5022032;28;20535;-69
2020/12/24 03:02:41;;;;;;;2.88;1.50;;;6.10;98.00;;;;;;5018706;28;20030;-70
2020/12/24 03:05:07;;;;;;;1.63;0.80;;;6.10;98.00;;;;;;5017303;28;20024;-69
2020/12/24 03:07:33;;;;;;;1.13;0.70;;;6.20;98.00;;;;;;5031905;28;20018;-70
2020/12/24 03:09:58;;;;;;;1.60;0.85;;;6.30;98.00;;;;;;5030786;28;20495;-70
2020/12/24 03:12:25;;;;;;;1.23;0.80;;;6.30;98.00;;;;;;5035872;28;20021;-70
2020/12/24 03:14:52;;;;;;;0.90;0.70;;;6.20;98.00;;;;;;5028295;28;20022;-70
2020/12/24 03:17:18;;;;;;;0.70;0.70;;;6.20;98.00;;;;;;5038244;28;20029;-69
2020/12/24 03:19:44;;;;;;;2.10;0.90;;;6.30;98.00;;;;;;5033558;28;20033;-68
2020/12/24 03:22:10;;;;;;;2.47;0.98;;;6.20;98.00;;;;;;5023779;28;20322;-67
2020/12/24 03:24:36;;;;;;;1.25;0.80;;;6.20;97.40;;;;;;5024368;28;20022;-68
2020/12/24 03:27:02;;;;;;;1.92;0.85;;;6.20;97.50;;;;;;5025987;28;20040;-68
2020/12/24 03:29:38;;;;;;;3.10;1.02;;;6.20;97.10;;;;;;5029972;28;20022;-67
2020/12/24 03:32:04;;;;;;;3.33;1.20;;;6.30;96.10;;;;;;5034135;28;20026;-70
2020/12/24 03:34:30;;;;;;;2.78;1.00;;;6.30;96.20;;;;;;5033419;28;20439;-70
2020/12/24 03:37:01;;;;;;;1.90;0.82;;;6.30;96.60;;;;;;5034201;28;20083;-70
2020/12/24 03:39:33;;;;;;;1.50;0.80;;;6.20;97.40;;;;;;5034250;28;20045;-70
2020/12/24 03:41:58;;;;;;;2.85;0.82;;;6.10;97.50;;;;;;5024737;28;20037;-69
2020/12/24 03:44:24;;;;;;;1.95;0.80;;;6.10;97.60;;;;;;5035814;28;20052;-69
2020/12/24 03:46:49;;;;;;;0.80;0.70;;;6.00;98.00;;;;;;5034211;28;20025;-69
2020/12/24 03:49:15;;;;;;;0.60;0.60;;;6.00;98.00;;;;;;5029392;28;20108;-69
2020/12/24 03:51:44;;;;;;;0.70;0.70;;;6.00;98.00;;;;;;5029853;28;20384;-69
2020/12/24 03:54:12;;;;;;;0.63;0.63;;;6.00;98.00;;;;;;5033449;28;20158;-69
2020/12/24 03:56:38;;;;;;;1.63;0.70;;;6.00;98.00;;;;;;5024584;28;20033;-69
2020/12/24 03:59:09;;;;;;;1.35;0.90;;;6.00;97.90;;;;;;5042986;28;20034;-69
2020/12/24 04:01:38;;;;;;;2.40;0.80;;;6.00;98.00;;;;;;5032741;28;20112;-69
2020/12/24 04:04:06;;;;;;;1.52;0.95;;;6.00;98.00;;;;;;5018532;28;20032;-69
2020/12/24 04:06:32;;;;;;;0.75;0.75;;;6.10;97.90;;;;;;5025905;28;20022;-69
2020/12/24 04:08:57;;;;;;;1.30;0.80;;;6.10;97.40;;;;;;5035439;28;20024;-69
2020/12/24 04:11:23;;;;;;;2.08;0.93;;;6.20;97.10;;;;;;5032951;28;20435;-69
2020/12/24 04:13:48;;;;;;;1.23;0.70;;;6.30;97.30;;;;;;5034103;28;20029;-69
2020/12/24 04:16:17;;;;;;;2.00;0.90;;;6.40;95.80;;;;;;5039623;28;20082;-69
2020/12/24 04:18:43;;;;;;;1.75;0.95;;;6.50;95.60;;;;;;5036752;28;20044;-69
2020/12/24 04:21:08;;;;;;;1.73;0.90;;;6.50;95.30;;;;;;5034323;28;20332;-69
2020/12/24 04:23:34;;;;;;;2.03;0.85;;;6.50;95.20;;;;;;5033541;28;20453;-69
2020/12/24 04:26:02;;;;;;;2.28;0.95;;;6.50;95.30;;;;;;5032679;28;20026;-69
2020/12/24 04:28:28;;;;;;;4.40;1.23;;;6.50;95.80;;;;;;5033822;28;20018;-69
2020/12/24 04:30:53;;;;;;;2.63;1.20;;;6.50;95.10;;;;;;5023579;28;20418;-69
2020/12/24 04:33:19;;;;;;;3.80;1.25;;;6.50;94.90;;;;;;5034748;28;20108;-68
2020/12/24 04:35:45;;;;;;;2.60;1.05;;;6.60;94.20;;;;;;5028598;28;20040;-69
2020/12/24 04:38:10;;;;;;;3.85;1.25;;;6.70;93.10;;;;;;5018802;28;20516;-68
2020/12/24 04:40:36;;;;;;;3.35;1.05;;;6.80;93.10;;;;;;5017857;28;20053;-69
2020/12/24 04:43:04;;;;;;;4.30;1.25;;;7.00;92.30;;;;;;5035759;28;20424;-68
2020/12/24 04:45:34;;;;;;;6.85;1.38;;;7.00;92.00;;;;;;5037137;28;20414;-68
2020/12/24 04:48:00;;;;;;;3.67;1.10;;;6.90;92.30;;;;;;5032544;28;20481;-69
2020/12/24 04:50:27;;;;;;;2.38;1.05;;;6.90;92.20;;;;;;5022696;28;20128;-68
2020/12/24 04:52:54;;;;;;;5.90;2.13;;;6.90;91.90;;;;;;5030287;28;20033;-69
2020/12/24 04:55:20;;;;;;;8.05;1.40;;;7.00;92.10;;;;;;5026006;28;20048;-69
2020/12/24 04:57:48;;;;;;;5.55;1.10;;;7.00;92.20;;;;;;5038742;28;20036;-69
2020/12/24 05:00:17;;;;;;;7.32;1.27;;;7.00;91.60;;;;;;5036838;28;20426;-69
2020/12/24 05:02:43;;;;;;;5.20;1.23;;;7.00;92.30;;;;;;5031806;28;20025;-68
2020/12/24 05:05:08;;;;;;;4.80;1.02;;;6.90;92.20;;;;;;5037849;28;20080;-68
2020/12/24 05:07:34;;;;;;;5.07;1.45;;;6.90;91.80;;;;;;5025673;28;20367;-69
2020/12/24 05:10:00;;;;;;;2.20;1.02;;;6.70;92.20;;;;;;5033395;28;20446;-69
2020/12/24 05:12:28;;;;;;;2.85;0.98;;;6.70;91.90;;;;;;5034584;28;20029;-69
2020/12/24 05:14:53;;;;;;;5.00;1.20;;;6.60;92.40;;;;;;5025489;28;20029;-69
2020/12/24 05:17:22;;;;;;;5.78;1.45;;;6.60;91.80;;;;;;5024506;28;20056;-69
2020/12/24 05:20:02;;;;;;;4.43;1.17;;;6.60;91.40;;;;;;5035113;28;20031;-69
2020/12/24 05:22:28;;;;;;;5.50;1.55;;;6.60;91.30;;;;;;5027436;28;20076;-69
2020/12/24 05:25:06;;;;;;;3.38;1.60;;;6.60;91.20;;;;;;5026608;28;20061;-69
2020/12/24 05:27:42;;;;;;;3.97;1.20;;;6.60;90.90;;;;;;5028209;28;20033;-69
2020/12/24 05:30:10;;;;;;;4.05;1.27;;;6.70;90.20;;;;;;5026607;28;20033;-69
2020/12/24 05:32:36;;;;;;;1.52;0.98;;;6.70;90.20;;;;;;5030653;28;20035;-68
2020/12/24 05:35:10;;;;;;;3.38;1.30;;;6.60;90.60;;;;;;5025234;28;20104;-69
2020/12/24 05:37:39;;;;;;;4.15;1.30;;;6.60;91.10;;;;;;5028585;28;20029;-69
2020/12/24 05:40:23;;;;;;;6.43;1.60;;;6.80;90.30;;;;;;5050338;28;20029;-69
2020/12/24 05:43:00;;;;;;;2.13;0.95;;;6.60;91.10;;;;;;5028795;28;20322;-69
2020/12/24 05:45:30;;;;;;;5.07;1.30;;;6.60;91.50;;;;;;5029336;28;20018;-69
2020/12/24 05:48:14;;;;;;;3.95;1.23;;;6.70;91.70;;;;;;5028065;28;20523;-68
2020/12/24 05:50:42;;;;;;;6.63;1.30;;;6.70;91.80;;;;;;5025310;28;20064;-69
2020/12/24 05:53:16;;;;;;;4.35;1.30;;;6.60;92.20;;;;;;5027029;28;20057;-68
2020/12/24 05:55:43;;;;;;;6.53;1.45;;;6.60;91.90;;;;;;5023574;28;20068;-69
2020/12/24 05:58:09;;;;;;;3.35;1.10;;;6.70;91.70;;;;;;5030238;28;20482;-69
2020/12/24 06:00:39;;;;;;;3.63;1.20;;;6.80;91.90;;;;;;5025732;28;20044;-69
2020/12/24 06:03:12;;;;;;;4.70;1.13;;;6.70;92.00;;;;;;5027078;28;20022;-69
2020/12/24 06:06:04;;;;;;;6.57;1.30;;;6.70;90.70;;;;;;5030130;28;20430;-69
2020/12/24 06:08:44;;;;;;;4.22;1.13;;;6.80;89.80;;;;;;5024254;28;20045;-69
2020/12/24 06:11:10;;;;;;;3.97;1.35;;;6.70;90.70;;;;;;5025578;28;20026;-69
2020/12/24 06:13:51;;;;;;;4.38;1.17;;;6.50;90.30;;;;;;5028477;28;20022;-68
2020/12/24 06:16:17;;;;;;;5.90;1.70;;;6.50;89.60;;;;;;5028569;28;20029;-67
2020/12/24 06:18:45;;;;;;;3.00;0.90;;;6.50;88.40;;;;;;5027120;28;20048;-67
2020/12/24 06:21:21;;;;;;;2.47;1.00;;;6.50;87.70;;;;;;5028474;28;20049;-67
2020/12/24 06:24:01;;;;;;;3.90;1.30;;;6.50;86.90;;;;;;5026453;28;20025;-67
2020/12/24 06:26:33;;;;;;;4.53;1.35;;;6.50;87.80;;;;;;5022198;28;20034;-69
2020/12/24 06:29:04;;;;;;;2.72;1.10;;;6.50;87.70;;;;;;5024228;28;20109;-69
2020/12/24 06:31:32;;;;;;;4.05;1.23;;;6.60;87.60;;;;;;5023881;28;20040;-69
2020/12/24 06:34:00;;;;;;;2.72;1.20;;;6.50;88.10;;;;;;5057035;28;20029;-68
2020/12/24 06:36:37;;;;;;;6.80;1.45;;;6.50;88.30;;;;;;5027727;28;20053;-69
2020/12/24 06:39:06;;;;;;;6.47;1.50;;;6.40;87.60;;;;;;5029967;28;20099;-68
2020/12/24 06:41:39;;;;;;;3.15;1.40;;;6.50;87.00;;;;;;5025225;28;20423;-68
2020/12/24 06:44:05;;;;;;;2.58;1.10;;;6.50;85.90;;;;;;5028751;28;20026;-69
2020/12/24 06:46:59;;;;;;;3.58;1.40;;;6.50;85.80;;;;;;5020235;28;20363;-68
2020/12/24 06:49:32;;;;;;;3.72;1.35;;;6.50;85.80;;;;;;5020808;28;20033;-69
2020/12/24 06:51:58;;;;;;;3.95;1.33;;;6.40;86.40;;;;;;5027012;28;20064;-68
2020/12/24 06:54:25;;;;;;;5.75;1.33;;;6.40;86.10;;;;;;5025220;28;20061;-69
2020/12/24 06:57:18;;;;;;;7.38;1.80;;;6.40;86.30;;;;;;5026386;28;20424;-68
2020/12/24 06:59:46;;;;;;;4.10;1.30;;;6.30;86.20;;;;;;5025158;28;20035;-68
2020/12/24 07:02:25;;;;;;;8.77;1.55;;;6.40;85.40;;;;;;5020956;28;20025;-69
2020/12/24 07:04:51;;;;;;;4.25;1.15;;;6.30;85.80;;;;;;5026744;28;20535;-69
2020/12/24 07:07:47;;;;;;;4.45;1.30;;;6.30;85.60;;;;;;5025986;28;20022;-69
2020/12/24 07:10:51;;;;;;;2.63;0.98;;;6.30;85.40;;;;;;5025623;28;20056;-67
2020/12/24 07:13:36;;;;;;;5.55;1.30;;;6.30;85.40;;;;;;5026012;28;20056;-68
2020/12/24 07:16:07;;;;;;;3.75;1.15;;;6.30;85.60;;;;;;5023098;28;20029;-68
2020/12/24 07:18:40;;;;;;;5.38;1.40;;;6.40;85.30;;;;;;5024339;28;20053;-69
2020/12/24 07:21:07;;;;;;;8.88;1.65;;;6.30;85.80;;;;;;5025857;28;20418;-69
2020/12/24 07:23:38;;;;;;;4.28;1.77;;;6.30;86.00;;;;;;5025508;28;20030;-68
2020/12/24 07:26:10;;;;;;;4.68;1.27;;;6.30;86.10;;;;;;5023144;28;20041;-68
2020/12/24 07:28:37;;;;;;;3.90;1.20;;;6.30;86.20;;;;;;5029724;28;20033;-68
2020/12/24 07:31:08;;;;;;;7.90;1.30;;;6.40;86.20;;;;;;5029302;28;20044;-68
2020/12/24 07:33:35;;;;;;;4.82;1.35;;;6.40;86.10;;;;;;5026826;28;20034;-68
2020/12/24 07:36:06;;;;;;;2.83;1.05;;;6.40;86.10;;;;;;5026182;28;20056;-69
2020/12/24 07:38:32;;;;;;;5.40;1.38;;;6.40;85.90;;;;;;5019413;28;20022;-68
2020/12/24 07:40:58;;;;;;;3.55;1.35;;;6.40;85.80;;;;;;5025977;28;20030;-68
2020/12/24 07:43:27;;;;;;;5.60;1.38;;;6.50;85.40;;;;;;5025940;28;20021;-68
2020/12/24 07:45:53;;;;;;;5.40;2.08;;;6.60;85.20;;;;;;5025984;28;20022;-68
2020/12/24 07:48:20;;;;;;;11.30;1.90;;;6.70;84.80;;;;;;5028881;28;20033;-68
2020/12/24 07:50:48;;;;;;;9.35;1.45;;;6.80;84.80;;;;;;5021712;28;20049;-68
2020/12/24 07:53:23;;;;;;;4.28;1.60;;;6.70;85.20;;;;;;5024830;28;20029;-68
2020/12/24 07:55:50;;;;;;;4.10;1.60;;;6.80;84.70;;;;;;5033601;28;20120;-68
2020/12/24 07:58:20;;;;;;;6.75;1.63;;;6.80;84.30;;;;;;5034306;28;20034;-67
2020/12/24 08:00:53;;;;;;;3.67;1.40;;;6.90;84.60;;;;;;5033514;28;20045;-67
2020/12/24 08:03:19;;;;;;;2.40;1.13;;;6.80;85.30;;;;;;5024835;28;20033;-68
2020/12/24 08:05:48;;;;;;;4.43;1.20;;;6.80;85.80;;;;;;5032555;28;20025;-68
2020/12/24 08:08:23;;;;;;;4.35;1.30;;;6.80;85.30;;;;;;5028723;28;20415;-67
2020/12/24 08:10:49;;;;;;;4.03;1.30;;;6.90;85.80;;;;;;5031800;28;20033;-68
2020/12/24 08:13:15;;;;;;;5.22;1.45;;;6.90;86.40;;;;;;5024558;28;20040;-68
2020/12/24 08:15:45;;;;;;;6.97;1.45;;;6.80;86.90;;;;;;5021602;28;20079;-68
2020/12/24 08:18:14;;;;;;;4.22;1.35;;;6.80;87.20;;;;;;5024353;28;20407;-68
2020/12/24 08:21:01;;;;;;;5.95;1.45;;;6.80;87.50;;;;;;5021060;28;20029;-68
2020/12/24 08:23:49;;;;;;;6.18;1.38;;;6.80;88.20;;;;;;5029731;28;20068;-68
2020/12/24 08:26:16;;;;;;;3.25;1.15;;;6.80;87.70;;;;;;5029308;28;20172;-68
2020/12/24 08:28:56;;;;;;;3.53;1.25;;;6.80;88.70;;;;;;5025005;28;20057;-68
2020/12/24 08:31:23;;;;;;;7.38;1.90;;;6.70;89.20;;;;;;5032659;28;20029;-68
2020/12/24 08:33:53;;;;;;;5.32;1.63;;;6.50;90.50;;;;;;5030182;28;20531;-69
2020/12/24 08:36:26;;;;;;;5.70;1.50;;;6.50;91.20;;;;;;5027859;28;20064;-68
2020/12/24 08:39:06;;;;;;;2.33;1.27;;;6.40;91.80;;;;;;5027161;28;20029;-67
2020/12/24 08:41:44;;;;;;;3.33;1.30;;;6.30;92.30;;;;;;5029688;28;20038;-68
2020/12/24 08:44:17;;;;;;;3.72;1.83;;;6.30;93.30;;;;;;5027594;28;20080;-68
2020/12/24 08:46:43;;;;;;;5.15;1.20;;;6.30;93.60;;;;;;5023632;28;20117;-68
2020/12/24 08:49:18;;;;;;;5.95;1.77;;;6.20;94.10;;;;;;5034529;28;20025;-68
2020/12/24 08:51:44;;;;;;;5.47;1.50;;;6.10;94.00;;;;;;5033839;28;20128;-67
2020/12/24 08:54:14;;;;;;;7.53;2.10;;;6.10;94.50;;;;;;5034606;28;20100;-69
2020/12/24 08:56:45;;;;;;;4.35;1.40;;;6.00;94.50;;;;;;5033245;28;20053;-68
2020/12/24 08:59:15;;;;;;;6.68;1.80;;;6.00;94.90;;;;;;5034530;28;20369;-69
2020/12/24 09:01:42;;;;;;;6.43;1.20;;;6.00;95.40;;;;;;5033906;28;20334;-69
2020/12/24 09:04:17;;;;;;;6.43;1.75;;;6.10;95.00;;;;;;5022359;28;20029;-68
2020/12/24 09:06:44;;;;;;;5.50;1.75;;;6.10;94.50;;;;;;5033126;28;20048;-68
2020/12/24 09:09:19;;;;;;;4.05;1.90;;;6.10;94.50;;;;;;5033124;28;20025;-68
2020/12/24 09:11:45;;;;;;;4.65;1.48;;;6.10;93.60;;;;;;5032352;28;20132;-68
2020/12/24 09:14:16;;;;;;;3.83;1.00;;;6.10;93.40;;;;;;5033286;28;20128;-67
2020/12/24 09:16:58;;;;;;;2.20;0.93;;;6.10;93.10;;;;;;5033706;28;20036;-66
2020/12/24 09:19:25;;;;;;;5.82;1.42;;;6.10;92.50;;;;;;5033610;28;20029;-66
2020/12/24 09:21:54;;;;;;;4.05;1.50;;;6.10;92.60;;;;;;5034111;28;20032;-69
2020/12/24 09:24:21;;;;;;;2.83;0.95;;;6.10;93.10;;;;;;5034191;28;20423;-69
2020/12/24 09:26:56;;;;;;;2.50;0.90;;;6.10;92.70;;;;;;5032326;28;20025;-69
2020/12/24 09:29:27;;;;;;;3.42;1.27;;;6.10;92.60;;;;;;5037058;28;20510;-67
2020/12/24 09:32:00;;;;;;;2.35;1.20;;;6.10;92.60;;;;;;5036069;28;20034;-68
2020/12/24 09:34:29;;;;;;;3.63;1.10;;;6.20;92.70;;;;;;5031902;28;20068;-67
2020/12/24 09:36:58;;;;;;;2.65;1.05;;;6.20;92.30;;;;;;5046628;28;20438;-68
2020/12/24 09:39:28;;;;;;;3.17;1.30;;;6.30;92.40;;;;;;5037016;28;20105;-68
2020/12/24 09:41:54;;;;;;;2.40;1.02;;;6.30;92.10;;;;;;5036568;28;20037;-69
2020/12/24 09:44:20;;;;;;;1.35;0.90;;;6.40;91.80;;;;;;5038921;28;20046;-68
2020/12/24 09:46:49;;;;;;;2.67;1.10;;;6.40;92.30;;;;;;5037317;28;20029;-68
2020/12/24 09:49:16;;;;;;;5.40;1.25;;;6.40;92.40;;;;;;5036801;28;20026;-68
2020/12/24 09:51:45;;;;;;;2.95;1.10;;;6.30;92.50;;;;;;5037739;28;20106;-68
2020/12/24 09:54:10;;;;;;;2.78;1.20;;;6.40;92.50;;;;;;5039664;28;20125;-68
2020/12/24 09:56:36;;;;;;;2.72;1.00;;;6.40;92.60;;;;;;5035297;28;20474;-69
2020/12/24 09:59:02;;;;;;;3.13;1.10;;;6.50;92.10;;;;;;5035260;28;20413;-69
2020/12/24 10:01:28;;;;;;;3.38;1.20;;;6.60;92.50;;;;;;5036310;28;20052;-69
2020/12/24 10:03:55;;;;;;;2.78;1.30;;;6.80;92.10;;;;;;5035932;28;20021;-69
2020/12/24 10:06:23;;;;;;;2.00;0.90;;;6.70;91.70;;;;;;5037632;28;20022;-69
2020/12/24 10:08:49;;;;;;;2.20;1.00;;;6.60;91.80;;;;;;5036047;28;20021;-69
2020/12/24 10:11:15;;;;;;;1.10;0.90;;;6.50;92.50;;;;;;5035060;28;20030;-67
2020/12/24 10:13:44;;;;;;;1.83;1.10;;;6.50;92.60;;;;;;5037113;28;20321;-68
2020/12/24 10:16:10;;;;;;;2.60;1.00;;;6.50;92.80;;;;;;5037467;28;20084;-69
2020/12/24 10:18:35;;;;;;;1.42;1.00;;;6.50;92.40;;;;;;5037789;28;20025;-69
2020/12/24 10:21:01;;;;;;;1.13;0.80;;;6.50;92.00;;;;;;5033146;28;20480;-69
2020/12/24 10:23:27;;;;;;;2.83;1.00;;;6.50;92.30;;;;;;5027901;28;20021;-68
2020/12/24 10:25:53;;;;;;;1.05;0.77;;;6.50;92.30;;;;;;5024101;28;20429;-67
2020/12/24 10:28:19;;;;;;;1.85;1.08;;;6.60;91.70;;;;;;5033336;28;20037;-68
2020/12/24 10:30:45;;;;;;;1.45;0.80;;;6.50;91.60;;;;;;5029625;28;20037;-69
2020/12/24 10:33:11;;;;;;;1.88;0.80;;;6.50;92.00;;;;;;5021213;28;20442;-69
2020/12/24 10:35:39;;;;;;;2.30;0.90;;;6.50;92.10;;;;;;5035918;28;20087;-68
2020/12/24 10:38:05;;;;;;;1.02;0.80;;;6.50;91.80;;;;;;5015969;28;20076;-68
2020/12/24 10:40:31;;;;;;;2.38;1.10;;;6.50;91.70;;;;;;5027306;28;20056;-68
2020/12/24 10:42:57;;;;;;;1.27;0.90;;;6.50;91.70;;;;;;5034845;28;20079;-67
2020/12/24 10:45:25;;;;;;;1.98;0.88;;;6.50;91.70;;;;;;5031452;28;20383;-68
2020/12/24 10:47:51;;;;;;;1.98;0.85;;;6.60;91.80;;;;;;5035927;28;20017;-68
2020/12/24 10:50:17;;;;;;;2.13;0.80;;;6.70;91.20;;;;;;5045203;28;20507;-68
2020/12/24 10:52:43;;;;;;;1.42;0.90;;;6.60;91.20;;;;;;5047365;28;20118;-67
2020/12/24 10:55:09;;;;;;;1.83;0.85;;;6.70;91.50;;;;;;5027986;28;20033;-69
2020/12/24 10:57:34;;;;;;;3.22;1.13;;;6.80;91.10;;;;;;5030989;28;20033;-68
2020/12/24 11:00:00;;;;;;;1.90;1.13;;;6.80;91.50;;;;;;5035878;28;20034;-68
2020/12/24 11:02:25;;;;;;;1.42;1.00;;;6.80;92.30;;;;;;5022533;28;20022;-68
2020/12/24 11:04:51;;;;;;;2.40;1.05;;;6.80;91.90;;;;;;5025549;28;20034;-68
2020/12/24 11:07:17;;;;;;;3.88;1.20;;;6.70;92.00;;;;;;5035543;28;20030;-68
2020/12/24 11:09:43;;;;;;;1.52;0.82;;;6.70;92.30;;;;;;5030981;28;20043;-68
2020/12/24 11:12:08;;;;;;;2.25;0.80;;;6.60;92.10;;;;;;5033017;28;20311;-68
2020/12/24 11:14:34;;;;;;;6.13;2.13;;;6.50;92.70;;;;;;5034404;28;20021;-68
2020/12/24 11:17:02;;;;;;;1.50;1.00;;;6.50;93.00;;;;;;5029469;28;20433;-67
2020/12/24 11:19:30;;;;;;;3.15;1.30;;;6.50;93.00;;;;;;5029628;28;20021;-69
2020/12/24 11:21:56;;;;;;;4.80;1.05;;;6.50;92.90;;;;;;5035308;28;20037;-68
2020/12/24 11:24:21;;;;;;;2.28;1.25;;;6.50;93.10;;;;;;5029803;28;20055;-68
2020/12/24 11:26:53;;;;;;;4.82;1.50;;;6.50;93.00;;;;;;5031841;28;20227;-68
2020/12/24 11:29:18;;;;;;;3.05;1.42;;;6.50;93.40;;;;;;5031202;28;20017;-68
2020/12/24 11:31:44;;;;;;;2.38;1.10;;;6.50;93.90;;;;;;5034760;28;20033;-68
2020/12/24 11:34:10;;;;;;;2.90;1.50;;;6.50;93.50;;;;;;5031997;28;20025;-68
2020/12/24 11:36:36;;;;;;;3.00;1.40;;;6.60;93.50;;;;;;5034287;28;20334;-68
2020/12/24 11:39:03;;;;;;;4.00;1.38;;;6.50;94.20;;;;;;5031609;28;20064;-68
2020/12/24 11:41:29;;;;;;;1.95;1.20;;;6.50;94.40;;;;;;5033185;28;20029;-68
2020/12/24 11:43:56;;;;;;;4.68;2.28;;;6.40;95.00;;;;;;5024500;28;20087;-68
2020/12/24 11:46:26;;;;;;;3.53;1.60;;;6.50;94.60;;;;;;5031411;28;20020;-68
2020/12/24 11:48:54;;;;;;;3.08;1.48;;;6.50;94.30;;;;;;5033374;28;20124;-67
2020/12/24 11:51:21;;;;;;;5.13;1.95;;;6.50;94.50;;;;;;5029687;28;20049;-66
2020/12/24 11:53:50;;;;;;;4.93;2.28;;;6.50;94.70;;;;;;5026802;28;20033;-67
2020/12/24 11:56:20;;;;;;;4.55;1.55;;;6.50;94.70;;;;;;5029823;28;20111;-68
2020/12/24 11:58:48;;;;;;;3.60;1.60;;;6.50;94.10;;;;;;5029330;28;20057;-68
2020/12/24 12:01:18;;;;;;;2.13;1.23;;;6.50;94.60;;;;;;5033218;28;20025;-68
2020/12/24 12:03:44;;;;;;;4.55;1.67;;;6.60;94.00;;;;;;5030836;28;20116;-67
2020/12/24 12:06:13;;;;;;;3.83;1.60;;;6.50;94.40;;;;;;5031301;28;20029;-67
2020/12/24 12:08:39;;;;;;;3.47;1.45;;;6.60;94.40;;;;;;5040392;28;20025;-66
2020/12/24 12:11:06;;;;;;;3.67;1.95;;;6.60;94.20;;;;;;5033392;28;20033;-66
2020/12/24 12:13:32;;;;;;;3.28;1.65;;;6.60;94.20;;;;;;5044527;28;20086;-66
2020/12/24 12:15:58;;;;;;;3.83;1.40;;;6.70;94.30;;;;;;5028508;28;20041;-68
2020/12/24 12:18:24;;;;;;;4.22;1.55;;;6.70;93.90;;;;;;5039189;28;20029;-68
2020/12/24 12:20:51;;;;;;;5.03;2.08;;;6.80;94.00;;;;;;5033737;28;20034;-68
2020/12/24 12:23:17;;;;;;;3.47;1.48;;;6.90;93.80;;;;;;5031682;28;20490;-68
2020/12/24 12:25:43;;;;;;;4.53;2.20;;;6.90;93.40;;;;;;5031968;28;20087;-68
2020/12/24 12:28:11;;;;;;;5.60;1.80;;;6.90;93.90;;;;;;5038188;28;20022;-67
2020/12/24 12:30:37;;;;;;;4.40;1.58;;;6.90;93.90;;;;;;5039574;28;20029;-68
2020/12/24 12:33:03;;;;;;;3.78;1.73;;;6.80;94.30;;;;;;5035877;28;20032;-67
2020/12/24 12:35:29;;;;;;;3.33;1.63;;;6.80;94.10;;;;;;5036116;28;20034;-67
2020/12/24 12:37:55;;;;;;;4.97;2.10;;;6.70;94.60;;;;;;5028120;28;20086;-67
2020/12/24 12:40:20;;;;;;;4.60;1.48;;;6.70;94.60;;;;;;5034137;28;20083;-68
2020/12/24 12:42:46;;;;;;;3.15;1.50;;;6.70;93.90;;;;;;5038941;28;20103;-69
2020/12/24 12:45:12;;;;;;;3.50;1.52;;;6.60;94.00;;;;;;5030836;28;20033;-67
2020/12/24 12:47:39;;;;;;;4.40;2.03;;;6.60;93.70;;;;;;5034240;28;20064;-67
2020/12/24 12:50:07;;;;;;;2.58;1.35;;;6.70;93.50;;;;;;5032359;28;20072;-68
2020/12/24 12:52:33;;;;;;;4.57;2.00;;;6.70;93.20;;;;;;5036643;28;20036;-68
2020/12/24 12:55:00;;;;;;;3.17;1.50;;;6.70;93.40;;;;;;5029938;28;20144;-68
2020/12/24 12:57:26;;;;;;;3.55;1.50;;;6.70;93.10;;;;;;5017864;28;20355;-68
2020/12/24 12:59:52;;;;;;;3.15;1.50;;;6.80;93.00;;;;;;5029027;28;20064;-67
2020/12/24 13:02:18;;;;;;;3.55;1.50;;;6.80;92.80;;;;;;5047823;28;20053;-68
2020/12/24 13:04:44;;;;;;;2.42;1.35;;;6.80;92.50;;;;;;5034355;28;20067;-67